WetterOnline ( http://www.wetteronline.de )

Wetter aktuell Grosseto

Aktuelles Wetter: Grosseto (7m)

6-stündlich | Neueste Meldungen
Ortszeit Temperatur Wetter
Di, 16.10. 8:00 17.6° C leicht bewölkt
Di, 16.10. 2:00 18.0° C leicht bewölkt
Mo, 15.10. 20:00 19.0° C leicht bewölkt
Mo, 15.10. 14:00 24.4° C leicht bewölkt
Mo, 15.10. 8:00 12.4° C leicht bewölkt
Mo, 15.10. 2:00 13.6° C wolkenlos
So, 14.10. 20:00 17.0° C leicht bewölkt
So, 14.10. 14:00 24.8° C fast wolkenlos
Ortszeit Temperatur Wetter
Di, 16.10. 11:00 18.0° C bewölkt
Di, 16.10. 10:55 18° C leicht bewölkt
Di, 16.10. 10:00 18.0° C bewölkt
Di, 16.10. 9:55 18° C leicht bewölkt
Di, 16.10. 9:00 18.0° C bewölkt
Di, 16.10. 8:55 18° C leicht bewölkt
Di, 16.10. 8:00 17.6° C leicht bewölkt
Di, 16.10. 7:55 18° C -
Di, 16.10. 7:00 17.6° C leicht bewölkt
Ortszeit Relative Feuchte Sichtweite
Di, 16.10. 8:00 80% 20 km
Di, 16.10. 2:00 80% 10 km
Mo, 15.10. 20:00 82% 7 km
Mo, 15.10. 14:00 50% 20 km
Mo, 15.10. 8:00 100% 10 km
Mo, 15.10. 2:00 99% 15 km
So, 14.10. 20:00 90% 15 km
So, 14.10. 14:00 65% 15 km
Ortszeit Relative Feuchte Sichtweite
Di, 16.10. 11:00 82% 15 km
Di, 16.10. 10:55 83% >10 km
Di, 16.10. 10:00 82% 12 km
Di, 16.10. 9:55 83% >10 km
Di, 16.10. 9:00 82% 15 km
Di, 16.10. 8:55 83% >10 km
Di, 16.10. 8:00 80% 20 km
Di, 16.10. 7:55 77% >10 km
Di, 16.10. 7:00 81% 10 km
Ortszeit Niederschlagsmenge Niederschlagsart
Di, 16.10. 8:00 0.0 l/m2 in 12 Std. -
Di, 16.10. 2:00 0.0 l/m2 in 6 Std. -
Mo, 15.10. 20:00 0.0 l/m2 in 12 Std. -
Mo, 15.10. 14:00 0.0 l/m2 in 6 Std. -
Mo, 15.10. 8:00 0.0 l/m2 in 12 Std. -
Mo, 15.10. 2:00 0.0 l/m2 in 6 Std. -
So, 14.10. 20:00 0.0 l/m2 in 12 Std. Gewitter
So, 14.10. 14:00 0.0 l/m2 in 6 Std. -
Ortszeit Niederschlagsmenge Niederschlagsart
Di, 16.10. 11:00 keine Meldung -
Di, 16.10. 10:55 keine Meldung -
Di, 16.10. 10:00 keine Meldung -
Di, 16.10. 9:55 keine Meldung -
Di, 16.10. 9:00 keine Meldung -
Di, 16.10. 8:55 keine Meldung -
Di, 16.10. 8:00 keine Meldung -
Di, 16.10. 7:55 keine Meldung -
Di, 16.10. 7:00 keine Meldung -
Ortszeit Stärke Spitze Richtung
km/h Bft. km/h Grad Sektor
Di, 16.10. 8:00 4 1 - 60° NO
Di, 16.10. 2:00 6 1 - 20° N
Mo, 15.10. 20:00 4 1 - 130° SO
Mo, 15.10. 14:00 6 1 - 200° S
Mo, 15.10. 8:00 9 2 - 50° NO
Mo, 15.10. 2:00 11 2 - 40° NO
So, 14.10. 20:00 4 1 - 20° N
So, 14.10. 14:00 11 2 - 210° SW
Ortszeit Stärke Spitze Richtung
km/h Bft. km/h Grad Sektor
Di, 16.10. 11:00 4 1 - 20° N
Di, 16.10. 10:55 4 1 - 20° N
Di, 16.10. 10:00 4 1 - 290° W
Di, 16.10. 9:55 4 1 - 290° W
Di, 16.10. 9:00 4 1 - 360° N
Di, 16.10. 8:55 4 1 - 360° N
Di, 16.10. 8:00 4 1 - 60° NO
Di, 16.10. 7:55 4 1 - 60° NO
Di, 16.10. 7:00 6 1 - 90° O
Ortszeit Untergrenze Bedeckung Gattung
total tief tief mittel hoch
Di, 16.10. 8:00 2700 m 7/8 5/8 - Ac Ci
Di, 16.10. 2:00 2100 m 5/8 5/8 - Ac -
Mo, 15.10. 20:00 3000 m 7/8 3/8 - Ac Ci
Mo, 15.10. 14:00 900 m 5/8 2/8 Cu - Ci
Mo, 15.10. 8:00 6000 m 5/8 5/8 - - Ci
Mo, 15.10. 2:00 - 0/8 0/8 - - -
So, 14.10. 20:00 600 m 2/8 2/8 Cu - -
So, 14.10. 14:00 900 m 1/8 1/8 Cu - -
Ortszeit Bedeckungsgrad in Achtel und Wolkenuntergrenze
Di, 16.10. 11:00 3(1200m) 3(2400m) 5(2700m)
Di, 16.10. 10:55 3-4(1200m)
Di, 16.10. 10:00 3(1200m) 5(2400m)
Di, 16.10. 9:55 3-4(1200m)
Di, 16.10. 9:00 3(1200m) 5(2400m)
Di, 16.10. 8:55 3-4(1200m)
Di, 16.10. 8:00 5(2700m) 3(6000m)
Di, 16.10. 7:55 keine Wolken(unter 1500 m)
Di, 16.10. 7:00 6(2100m)
Ortszeit Luftdruck NN (hPa) Tendenz (hPa in 3 Std.)
Di, 16.10. 8:00 1016 0,0
Di, 16.10. 2:00 1016 - 0,2
Mo, 15.10. 20:00 1016 + 0,9
Mo, 15.10. 14:00 1016 - 0,5
Mo, 15.10. 8:00 1016 - 0,4
Mo, 15.10. 2:00 1016 - 0,3
So, 14.10. 20:00 1016 0,0
So, 14.10. 14:00 1017 - 2,0
Ortszeit Luftdruck NN (hPa) Tendenz (hPa in 3 Std.)
Di, 16.10. 11:00 1017 + 1,0
Di, 16.10. 10:55 1016 keine Meldung
Di, 16.10. 10:00 1017 + 1,0
Di, 16.10. 9:55 1016 keine Meldung
Di, 16.10. 9:00 1016 + 0,1
Di, 16.10. 8:55 1016 keine Meldung
Di, 16.10. 8:00 1016 0,0
Di, 16.10. 7:55 1015 keine Meldung
Di, 16.10. 7:00 1016 - 0,3
Ortszeit Schneehöhe (cm)
Di, 16.10. 8:00 0
Di, 16.10. 2:00 -
Mo, 15.10. 20:00 -
Mo, 15.10. 14:00 -
Mo, 15.10. 8:00 0
Mo, 15.10. 2:00 -
So, 14.10. 20:00 -
So, 14.10. 14:00 -
Ortszeit Schneehöhe (cm)
Di, 16.10. 11:00 -
Di, 16.10. 10:55 -
Di, 16.10. 10:00 -
Di, 16.10. 9:55 -
Di, 16.10. 9:00 -
Di, 16.10. 8:55 -
Di, 16.10. 8:00 0
Di, 16.10. 7:55 -
Di, 16.10. 7:00 -
Link zu dieser Seite / Seite empfehlen

Das Wetter in ...